Lyons, Colorado
Current Conditions -  °F | °C
As of 12:55 PM on Wednesday 28 Jan 2015 (Local Time) from KLMO Reporting Station
Clear Clear  
Wind Chill: 61°   Ceiling: Unl
Heat Index: 61°   Visibility: 10mi
Dew Point: 20°   Wind: 24mph
Humidity: 21%   Direction: 280°W
Pressure: 30.04"   Gusts: 37mph
Location:  40.22°N, 105.27°W
Report Text: KLMO 281955Z AUTO 28021G32KT 10SM CLR 16/M06 A3004 RMK AO2 T01611065
Loading
Personal Weather Stations






























Interactive Weather Map New forecast layout! Learn more

10-Day Weather Forecast

Advertisements
Track Severe Weather on mobile